createdAt,value
2022-11-15T00:02:00.463Z,9.12
2022-11-15T00:04:28.312Z,7.97
2022-11-15T00:06:56.157Z,6.88
2022-11-15T00:09:23.898Z,8.01
2022-11-15T00:11:52.733Z,9.35
2022-11-15T00:14:20.497Z,9.62
2022-11-15T00:16:48.273Z,8.25
2022-11-15T00:19:16.178Z,7.24
2022-11-15T00:21:43.956Z,7.84
2022-11-15T00:24:26.455Z,9.25
2022-11-15T00:26:54.274Z,9.95
2022-11-15T00:32:07.359Z,8.06
2022-11-15T00:34:35.235Z,7.10
2022-11-15T00:37:03.066Z,6.38
2022-11-15T00:39:30.830Z,6.33
2022-11-15T00:41:58.684Z,7.88
2022-11-15T00:44:26.513Z,8.73
2022-11-15T00:46:54.424Z,9.07
2022-11-15T00:49:22.201Z,9.23
2022-11-15T00:51:49.987Z,9.71
2022-11-15T00:54:17.752Z,9.42
2022-11-15T00:56:45.516Z,8.13
2022-11-15T00:59:13.351Z,6.99
2022-11-15T01:01:41.109Z,6.11
2022-11-15T01:04:08.842Z,5.69
2022-11-15T01:06:36.683Z,6.81
2022-11-15T01:09:04.488Z,7.94
2022-11-15T01:11:32.391Z,8.33
2022-11-15T01:14:00.138Z,8.43
2022-11-15T01:16:27.988Z,7.52
2022-11-15T01:18:55.729Z,6.41
2022-11-15T01:21:23.567Z,5.51
2022-11-15T01:23:55.736Z,5.14
2022-11-15T01:26:24.817Z,6.09
2022-11-15T01:28:52.652Z,6.97
2022-11-15T01:31:22.346Z,7.70
2022-11-15T01:33:50.332Z,8.30
2022-11-15T01:36:24.802Z,8.19
2022-11-15T01:38:57.190Z,7.07
2022-11-15T01:41:28.134Z,5.96
2022-11-15T01:43:58.701Z,5.12
2022-11-15T01:46:33.473Z,4.82
2022-11-15T01:49:05.819Z,5.70
2022-11-15T01:51:34.463Z,6.43
2022-11-15T01:54:11.793Z,7.02
2022-11-15T01:56:47.511Z,7.38
2022-11-15T01:59:15.961Z,7.76
2022-11-15T02:01:44.293Z,7.89
2022-11-15T02:04:19.388Z,6.88
2022-11-15T02:06:49.415Z,5.71
2022-11-15T02:09:18.388Z,5.12
2022-11-15T02:11:48.265Z,5.61
2022-11-15T02:14:19.321Z,6.09
2022-11-15T02:16:59.146Z,6.45
2022-11-15T02:19:32.990Z,6.53
2022-11-15T02:22:06.923Z,6.57
2022-11-15T02:25:06.008Z,6.66
2022-11-15T02:27:58.497Z,7.40
2022-11-15T02:30:54.226Z,8.03
2022-11-15T02:33:35.654Z,7.86
2022-11-15T02:36:11.103Z,6.70
2022-11-15T02:38:47.994Z,5.66
2022-11-15T02:41:31.462Z,5.19
2022-11-15T02:44:09.347Z,5.88
2022-11-15T02:47:05.999Z,6.53
2022-11-15T02:49:36.074Z,6.88
2022-11-15T02:52:03.948Z,7.14
2022-11-15T02:54:34.514Z,7.82
2022-11-15T02:57:17.892Z,8.18
2022-11-15T03:00:04.672Z,8.46
2022-11-15T03:02:48.100Z,8.30
2022-11-15T03:05:38.530Z,7.11
2022-11-15T03:08:18.862Z,5.98
2022-11-15T03:11:11.982Z,5.51
2022-11-15T03:13:46.417Z,6.30
2022-11-15T03:16:24.691Z,7.14
2022-11-15T03:19:01.056Z,7.48
2022-11-15T03:21:31.491Z,7.35
2022-11-15T03:24:04.011Z,7.49
2022-11-15T03:26:35.714Z,7.87
2022-11-15T03:29:14.898Z,8.15
2022-11-15T03:31:51.162Z,8.72
2022-11-15T03:34:30.957Z,8.84
2022-11-15T03:36:59.092Z,8.75
2022-11-15T03:39:27.470Z,8.76
2022-11-15T03:42:11.522Z,8.72
2022-11-15T03:44:53.311Z,9.01
2022-11-15T03:47:35.910Z,9.91
2022-11-15T03:50:09.439Z,9.92
2022-11-15T03:52:38.343Z,8.81
2022-11-15T03:55:09.419Z,7.74
2022-11-15T03:57:37.419Z,7.29
2022-11-15T04:00:06.015Z,8.02
2022-11-15T04:02:33.784Z,9.03
2022-11-15T04:05:01.705Z,10.25
2022-11-15T04:07:29.646Z,11.11
2022-11-15T04:10:03.811Z,11.48
2022-11-15T04:12:33.378Z,11.19
2022-11-15T04:15:16.788Z,9.95
2022-11-15T04:17:50.285Z,8.76
2022-11-15T04:20:40.383Z,8.22
2022-11-15T04:23:30.188Z,9.30
2022-11-15T04:26:01.679Z,10.14
2022-11-15T04:28:30.089Z,10.33
2022-11-15T04:30:57.956Z,10.44
2022-11-15T04:33:25.990Z,10.87
2022-11-15T04:36:12.508Z,11.28
2022-11-15T04:38:40.244Z,11.38
2022-11-15T04:41:07.999Z,11.45
2022-11-15T04:43:35.968Z,11.60
2022-11-15T04:46:04.074Z,11.82
2022-11-15T04:48:31.848Z,12.08
2022-11-15T04:50:59.678Z,12.38
2022-11-15T04:53:27.459Z,12.08
2022-11-15T04:55:55.189Z,11.01
2022-11-15T04:58:23.003Z,10.03
2022-11-15T05:00:50.864Z,9.22
2022-11-15T05:03:37.550Z,8.86
2022-11-15T05:06:06.314Z,9.86
2022-11-15T05:08:34.382Z,10.06
2022-11-15T05:11:02.176Z,8.98
2022-11-15T05:13:30.241Z,7.85
2022-11-15T05:15:58.401Z,6.96
2022-11-15T05:18:26.420Z,7.31
2022-11-15T05:20:54.180Z,7.95
2022-11-15T05:23:22.051Z,8.13
2022-11-15T05:25:49.838Z,8.69
2022-11-15T05:28:17.604Z,8.90
2022-11-15T05:30:45.331Z,8.92
2022-11-15T05:33:13.081Z,9.05
2022-11-15T05:35:43.496Z,9.07
2022-11-15T05:38:11.271Z,8.78
2022-11-15T05:40:39.090Z,8.93
2022-11-15T05:43:07.191Z,9.08
2022-11-15T05:45:36.339Z,9.19
2022-11-15T05:48:08.871Z,9.42
2022-11-15T05:50:43.509Z,9.29
2022-11-15T05:53:15.581Z,8.11
2022-11-15T05:55:43.578Z,6.92
2022-11-15T05:58:11.414Z,6.70
2022-11-15T06:00:39.757Z,8.35
2022-11-15T06:03:07.558Z,9.54
2022-11-15T06:05:35.372Z,8.52
2022-11-15T06:08:03.236Z,6.77
2022-11-15T06:10:31.081Z,6.66
2022-11-15T06:13:04.569Z,7.53
2022-11-15T06:15:34.277Z,8.14
2022-11-15T06:18:02.323Z,8.77
2022-11-15T06:20:31.233Z,8.22
2022-11-15T06:23:04.822Z,6.99
2022-11-15T06:25:32.650Z,5.92
2022-11-15T06:28:00.933Z,5.21
2022-11-15T06:30:28.933Z,5.62
2022-11-15T06:33:01.856Z,6.71
2022-11-15T06:35:30.515Z,7.32
2022-11-15T06:38:06.882Z,7.53
2022-11-15T06:40:36.435Z,7.82
2022-11-15T06:43:05.784Z,8.07
2022-11-15T06:45:33.854Z,8.40
2022-11-15T06:48:01.703Z,9.63
2022-11-15T06:50:29.473Z,9.77
2022-11-15T06:53:03.063Z,8.69
2022-11-15T06:55:31.060Z,7.66
2022-11-15T06:57:58.962Z,6.99
2022-11-15T07:00:26.749Z,6.82
2022-11-15T07:02:54.568Z,7.94
2022-11-15T07:05:22.378Z,8.97
2022-11-15T07:07:54.565Z,9.39
2022-11-15T07:10:25.566Z,9.85
2022-11-15T07:12:54.076Z,10.14
2022-11-15T07:15:24.496Z,10.53
2022-11-15T07:17:52.442Z,10.85
2022-11-15T07:20:20.274Z,10.03
2022-11-15T07:22:48.151Z,9.14
2022-11-15T07:25:16.099Z,8.46
2022-11-15T07:27:43.924Z,8.20
2022-11-15T07:30:15.399Z,9.12
2022-11-15T07:32:43.396Z,10.33
2022-11-15T07:35:11.167Z,10.88
2022-11-15T07:37:38.914Z,10.22
2022-11-15T07:40:07.516Z,9.40
2022-11-15T07:42:53.722Z,8.80
2022-11-15T07:45:27.310Z,8.62
2022-11-15T07:47:56.934Z,9.63
2022-11-15T07:50:25.437Z,10.85
2022-11-15T07:52:58.383Z,11.54
2022-11-15T07:55:28.958Z,10.86
2022-11-15T07:58:04.897Z,9.92
2022-11-15T08:00:33.495Z,9.54
2022-11-15T08:03:12.563Z,10.24
2022-11-15T08:05:42.210Z,10.73
2022-11-15T08:08:13.205Z,11.16
2022-11-15T08:10:41.058Z,11.25
2022-11-15T08:13:12.873Z,11.28
2022-11-15T08:15:40.662Z,10.94
2022-11-15T08:18:13.463Z,11.21
2022-11-15T08:20:42.152Z,11.30
2022-11-15T08:23:12.272Z,11.28
2022-11-15T08:25:40.499Z,11.73
2022-11-15T08:28:11.280Z,12.08
2022-11-15T08:30:43.094Z,11.50
2022-11-15T08:33:15.419Z,10.52
2022-11-15T08:35:44.518Z,10.15
2022-11-15T08:38:12.733Z,10.90
2022-11-15T08:40:40.511Z,11.63
2022-11-15T08:43:08.372Z,12.02
2022-11-15T08:45:36.952Z,12.00
2022-11-15T08:48:05.013Z,11.24
2022-11-15T08:50:32.939Z,10.47
2022-11-15T08:53:09.629Z,10.15
2022-11-15T08:55:39.031Z,11.04
2022-11-15T08:58:07.140Z,11.88
2022-11-15T09:00:35.100Z,12.44
2022-11-15T09:03:06.049Z,12.72
2022-11-15T09:05:36.674Z,12.03
2022-11-15T09:08:19.014Z,11.16
2022-11-15T09:10:52.851Z,10.59
2022-11-15T09:13:20.606Z,10.62
2022-11-15T09:15:48.524Z,11.51
2022-11-15T09:18:16.363Z,12.37
2022-11-15T09:20:44.260Z,13.07
2022-11-15T09:23:12.127Z,13.01
2022-11-15T09:25:39.944Z,12.25
2022-11-15T09:28:09.100Z,11.59
2022-11-15T09:30:36.912Z,11.28
2022-11-15T09:33:12.767Z,11.85
2022-11-15T09:35:42.055Z,12.57
2022-11-15T09:38:09.879Z,13.04
2022-11-15T09:40:39.032Z,13.37
2022-11-15T09:43:28.506Z,13.60
2022-11-15T09:46:47.665Z,13.66
2022-11-15T09:49:17.390Z,12.87
2022-11-15T09:51:48.883Z,12.38
2022-11-15T09:57:50.783Z,14.61
2022-11-15T10:00:47.079Z,14.96
2022-11-15T10:03:19.287Z,14.12
2022-11-15T10:05:49.583Z,13.64
2022-11-15T10:08:17.310Z,13.37
2022-11-15T10:10:50.042Z,13.13
2022-11-15T10:13:26.061Z,12.92
2022-11-15T10:16:00.259Z,13.86
2022-11-15T10:19:01.453Z,15.40
2022-11-15T10:22:08.283Z,15.97
2022-11-15T10:24:42.754Z,15.04
2022-11-15T10:27:17.851Z,14.39
2022-11-15T10:29:48.068Z,13.88
2022-11-15T10:32:17.278Z,13.43
2022-11-15T10:34:45.084Z,13.35
2022-11-15T10:37:12.912Z,14.70
2022-11-15T10:39:40.865Z,15.30
2022-11-15T10:42:29.952Z,14.57
2022-11-15T10:44:57.820Z,13.69
2022-11-15T10:47:38.857Z,13.15
2022-11-15T10:50:33.071Z,13.19
2022-11-15T10:53:03.916Z,14.86
2022-11-15T10:55:34.491Z,15.54
2022-11-15T10:58:21.132Z,15.02
2022-11-15T11:00:49.031Z,14.18
2022-11-15T11:03:30.543Z,13.70
2022-11-15T11:06:16.842Z,14.26
2022-11-15T11:09:22.924Z,15.68
2022-11-15T11:11:52.966Z,16.48
2022-11-15T11:14:28.410Z,15.67
2022-11-15T11:17:14.827Z,14.92
2022-11-15T11:19:51.093Z,14.31
2022-11-15T11:22:21.924Z,13.93
2022-11-15T11:25:31.377Z,13.67
2022-11-15T11:28:18.162Z,14.77
2022-11-15T11:31:09.392Z,16.00
2022-11-15T11:34:02.698Z,15.36
2022-11-15T11:37:01.808Z,14.56
2022-11-15T11:39:54.663Z,13.98
2022-11-15T11:42:38.831Z,14.22
2022-11-15T11:45:52.707Z,15.51
2022-11-15T11:48:29.750Z,16.04
2022-11-15T11:51:13.033Z,15.32
2022-11-15T11:53:47.892Z,14.67
2022-11-15T11:56:24.764Z,14.21
2022-11-15T11:58:55.515Z,13.93
2022-11-15T12:01:38.812Z,14.02
2022-11-15T12:04:29.950Z,15.50
2022-11-15T12:07:21.647Z,16.61
2022-11-15T12:09:55.527Z,15.98
2022-11-15T12:12:50.406Z,15.39
2022-11-15T12:15:23.426Z,14.95
2022-11-15T12:17:51.534Z,14.63
2022-11-15T12:20:22.932Z,14.32
2022-11-15T12:22:53.867Z,14.10
2022-11-15T12:25:26.987Z,13.90
2022-11-15T12:28:05.379Z,13.99
2022-11-15T12:30:53.381Z,15.30
2022-11-15T12:33:41.101Z,16.21
2022-11-15T12:36:30.188Z,15.53
2022-11-15T12:39:06.081Z,14.80
2022-11-15T12:41:39.431Z,14.28
2022-11-15T12:44:34.501Z,13.87
2022-11-15T12:47:02.611Z,13.63
2022-11-15T12:49:30.357Z,14.93
2022-11-15T12:51:58.086Z,16.15
2022-11-15T12:54:25.791Z,15.67
2022-11-15T12:57:08.520Z,14.78
2022-11-15T12:59:56.502Z,14.03
2022-11-15T13:02:40.846Z,13.86
2022-11-15T13:05:14.947Z,15.29
2022-11-15T13:07:43.277Z,16.24
2022-11-15T13:10:11.137Z,15.48
2022-11-15T13:12:45.280Z,14.58
2022-11-15T13:15:13.033Z,13.93
2022-11-15T13:17:43.626Z,13.51
2022-11-15T13:20:17.335Z,13.84
2022-11-15T13:22:52.552Z,15.37
2022-11-15T13:25:44.260Z,16.22
2022-11-15T13:28:15.070Z,15.49
2022-11-15T13:30:56.411Z,14.76
2022-11-15T13:33:35.729Z,14.20
2022-11-15T13:36:25.535Z,13.74
2022-11-15T13:39:31.071Z,13.73
2022-11-15T13:41:59.896Z,14.98
2022-11-15T13:44:30.612Z,15.52
2022-11-15T13:47:15.468Z,14.83
2022-11-15T13:49:43.500Z,14.00
2022-11-15T13:52:15.481Z,13.44
2022-11-15T13:54:45.880Z,13.30
2022-11-15T13:57:42.906Z,14.15
2022-11-15T14:00:27.212Z,15.05
2022-11-15T14:02:57.483Z,15.02
2022-11-15T14:05:26.047Z,14.16
2022-11-15T14:08:22.190Z,13.44
2022-11-15T14:11:06.505Z,12.87
2022-11-15T14:13:35.025Z,12.92
2022-11-15T14:16:22.203Z,14.18
2022-11-15T14:18:52.843Z,15.59
2022-11-15T14:21:21.602Z,15.83
2022-11-15T14:23:50.231Z,14.92
2022-11-15T14:26:28.816Z,13.99
2022-11-15T14:28:56.724Z,13.26
2022-11-15T14:31:24.752Z,12.77
2022-11-15T14:33:52.497Z,12.66
2022-11-15T14:36:21.906Z,13.80
2022-11-15T14:38:49.675Z,14.54
2022-11-15T14:41:23.802Z,14.71
2022-11-15T14:43:52.824Z,14.81
2022-11-15T14:46:20.883Z,14.85
2022-11-15T14:48:48.739Z,14.90
2022-11-15T14:51:20.118Z,15.04
2022-11-15T14:53:48.563Z,15.05
2022-11-15T14:56:17.513Z,14.30
